sensor_id;sensor_type;location;lat;lon;timestamp;P1;durP1;ratioP1;P2;durP2;ratioP2
8755;SDS011;4414;42.670;23.228;2024-02-16T00:01:01;5.75;;;3.53;;
8755;SDS011;4414;42.670;23.228;2024-02-16T00:03:27;7.57;;;4.40;;
8755;SDS011;4414;42.670;23.228;2024-02-16T00:05:52;9.98;;;4.03;;
8755;SDS011;4414;42.670;23.228;2024-02-16T00:08:18;8.52;;;3.88;;
8755;SDS011;4414;42.670;23.228;2024-02-16T00:10:44;7.65;;;4.15;;
8755;SDS011;4414;42.670;23.228;2024-02-16T00:13:09;8.90;;;4.80;;
8755;SDS011;4414;42.670;23.228;2024-02-16T00:15:35;10.05;;;4.50;;
8755;SDS011;4414;42.670;23.228;2024-02-16T00:18:02;11.82;;;5.00;;
8755;SDS011;4414;42.670;23.228;2024-02-16T00:20:28;7.32;;;3.63;;
8755;SDS011;4414;42.670;23.228;2024-02-16T00:22:53;8.40;;;4.00;;
8755;SDS011;4414;42.670;23.228;2024-02-16T00:25:19;9.27;;;4.75;;
8755;SDS011;4414;42.670;23.228;2024-02-16T00:27:45;10.85;;;4.63;;
8755;SDS011;4414;42.670;23.228;2024-02-16T00:30:10;11.25;;;6.28;;
8755;SDS011;4414;42.670;23.228;2024-02-16T00:32:36;9.18;;;4.22;;
8755;SDS011;4414;42.670;23.228;2024-02-16T00:35:02;7.70;;;4.40;;
8755;SDS011;4414;42.670;23.228;2024-02-16T00:37:28;7.05;;;5.10;;
8755;SDS011;4414;42.670;23.228;2024-02-16T00:39:53;9.80;;;3.80;;
8755;SDS011;4414;42.670;23.228;2024-02-16T00:42:20;6.65;;;5.00;;
8755;SDS011;4414;42.670;23.228;2024-02-16T00:44:48;6.80;;;3.90;;
8755;SDS011;4414;42.670;23.228;2024-02-16T00:47:13;9.30;;;4.05;;
8755;SDS011;4414;42.670;23.228;2024-02-16T00:49:41;11.68;;;5.07;;
8755;SDS011;4414;42.670;23.228;2024-02-16T00:52:07;8.13;;;4.25;;
8755;SDS011;4414;42.670;23.228;2024-02-16T00:54:35;7.13;;;4.35;;
8755;SDS011;4414;42.670;23.228;2024-02-16T00:57:00;10.07;;;4.53;;
8755;SDS011;4414;42.670;23.228;2024-02-16T00:59:27;10.55;;;4.88;;
8755;SDS011;4414;42.670;23.228;2024-02-16T01:01:53;8.90;;;4.78;;
8755;SDS011;4414;42.670;23.228;2024-02-16T01:04:19;10.40;;;5.38;;
8755;SDS011;4414;42.670;23.228;2024-02-16T01:06:44;8.02;;;4.18;;
8755;SDS011;4414;42.670;23.228;2024-02-16T01:09:09;8.75;;;4.57;;
8755;SDS011;4414;42.670;23.228;2024-02-16T01:11:38;8.45;;;3.65;;
8755;SDS011;4414;42.670;23.228;2024-02-16T01:14:07;5.53;;;3.65;;
8755;SDS011;4414;42.670;23.228;2024-02-16T01:16:33;11.80;;;4.35;;
8755;SDS011;4414;42.670;23.228;2024-02-16T01:18:58;8.23;;;4.25;;
8755;SDS011;4414;42.670;23.228;2024-02-16T01:21:23;7.65;;;4.25;;
8755;SDS011;4414;42.670;23.228;2024-02-16T01:23:49;5.10;;;4.00;;
8755;SDS011;4414;42.670;23.228;2024-02-16T01:26:14;4.78;;;2.97;;
8755;SDS011;4414;42.670;23.228;2024-02-16T01:28:40;11.70;;;4.35;;
8755;SDS011;4414;42.670;23.228;2024-02-16T01:31:05;6.55;;;3.85;;
8755;SDS011;4414;42.670;23.228;2024-02-16T01:33:31;8.40;;;4.45;;
8755;SDS011;4414;42.670;23.228;2024-02-16T01:35:59;9.65;;;4.57;;
8755;SDS011;4414;42.670;23.228;2024-02-16T01:38:25;5.97;;;3.90;;
8755;SDS011;4414;42.670;23.228;2024-02-16T01:40:50;9.55;;;4.68;;
8755;SDS011;4414;42.670;23.228;2024-02-16T01:43:22;8.80;;;4.07;;
8755;SDS011;4414;42.670;23.228;2024-02-16T01:45:47;9.07;;;4.63;;
8755;SDS011;4414;42.670;23.228;2024-02-16T01:48:13;6.90;;;3.92;;
8755;SDS011;4414;42.670;23.228;2024-02-16T01:50:43;9.23;;;4.47;;
8755;SDS011;4414;42.670;23.228;2024-02-16T01:53:09;7.38;;;3.88;;
8755;SDS011;4414;42.670;23.228;2024-02-16T01:55:36;7.38;;;4.57;;
8755;SDS011;4414;42.670;23.228;2024-02-16T01:58:02;7.20;;;3.95;;
8755;SDS011;4414;42.670;23.228;2024-02-16T02:00:28;8.43;;;4.13;;
8755;SDS011;4414;42.670;23.228;2024-02-16T02:02:53;6.78;;;4.13;;
8755;SDS011;4414;42.670;23.228;2024-02-16T02:05:19;5.97;;;3.90;;
8755;SDS011;4414;42.670;23.228;2024-02-16T02:07:44;6.35;;;4.93;;
8755;SDS011;4414;42.670;23.228;2024-02-16T02:10:10;9.38;;;4.00;;
8755;SDS011;4414;42.670;23.228;2024-02-16T02:12:39;6.85;;;3.97;;
8755;SDS011;4414;42.670;23.228;2024-02-16T02:15:05;8.25;;;4.75;;
8755;SDS011;4414;42.670;23.228;2024-02-16T02:17:30;8.20;;;4.53;;
8755;SDS011;4414;42.670;23.228;2024-02-16T02:19:56;7.28;;;3.75;;
8755;SDS011;4414;42.670;23.228;2024-02-16T02:22:21;7.68;;;4.20;;
8755;SDS011;4414;42.670;23.228;2024-02-16T02:24:47;8.05;;;4.38;;
8755;SDS011;4414;42.670;23.228;2024-02-16T02:27:16;10.98;;;3.80;;
8755;SDS011;4414;42.670;23.228;2024-02-16T02:29:41;15.20;;;5.00;;
8755;SDS011;4414;42.670;23.228;2024-02-16T02:32:07;6.22;;;3.42;;
8755;SDS011;4414;42.670;23.228;2024-02-16T02:34:33;15.52;;;4.38;;
8755;SDS011;4414;42.670;23.228;2024-02-16T02:36:59;5.75;;;3.13;;
8755;SDS011;4414;42.670;23.228;2024-02-16T02:39:24;6.35;;;3.90;;
8755;SDS011;4414;42.670;23.228;2024-02-16T02:41:50;8.60;;;3.80;;
8755;SDS011;4414;42.670;23.228;2024-02-16T02:44:15;9.40;;;4.43;;
8755;SDS011;4414;42.670;23.228;2024-02-16T02:46:40;5.25;;;3.72;;
8755;SDS011;4414;42.670;23.228;2024-02-16T02:49:06;5.93;;;4.15;;
8755;SDS011;4414;42.670;23.228;2024-02-16T02:51:31;7.13;;;3.05;;
8755;SDS011;4414;42.670;23.228;2024-02-16T02:53:57;6.30;;;2.88;;
8755;SDS011;4414;42.670;23.228;2024-02-16T02:56:22;7.15;;;4.28;;
8755;SDS011;4414;42.670;23.228;2024-02-16T02:58:47;7.35;;;3.17;;
8755;SDS011;4414;42.670;23.228;2024-02-16T03:01:13;6.32;;;3.22;;
8755;SDS011;4414;42.670;23.228;2024-02-16T03:03:39;9.50;;;3.85;;
8755;SDS011;4414;42.670;23.228;2024-02-16T03:06:06;6.63;;;3.85;;
8755;SDS011;4414;42.670;23.228;2024-02-16T03:08:32;7.22;;;3.05;;
8755;SDS011;4414;42.670;23.228;2024-02-16T03:10:57;5.45;;;3.10;;
8755;SDS011;4414;42.670;23.228;2024-02-16T03:13:26;8.00;;;3.38;;
8755;SDS011;4414;42.670;23.228;2024-02-16T03:15:52;5.82;;;3.08;;
8755;SDS011;4414;42.670;23.228;2024-02-16T03:18:18;9.30;;;3.00;;
8755;SDS011;4414;42.670;23.228;2024-02-16T03:20:44;8.25;;;3.45;;
8755;SDS011;4414;42.670;23.228;2024-02-16T03:23:12;6.32;;;3.10;;
8755;SDS011;4414;42.670;23.228;2024-02-16T03:25:38;6.80;;;2.70;;
8755;SDS011;4414;42.670;23.228;2024-02-16T03:28:03;8.00;;;3.77;;
8755;SDS011;4414;42.670;23.228;2024-02-16T03:30:29;5.72;;;3.47;;
8755;SDS011;4414;42.670;23.228;2024-02-16T03:32:54;6.05;;;2.80;;
8755;SDS011;4414;42.670;23.228;2024-02-16T03:35:20;4.50;;;3.55;;
8755;SDS011;4414;42.670;23.228;2024-02-16T03:37:45;8.60;;;2.90;;
8755;SDS011;4414;42.670;23.228;2024-02-16T03:40:11;7.35;;;3.47;;
8755;SDS011;4414;42.670;23.228;2024-02-16T03:42:38;5.65;;;3.17;;
8755;SDS011;4414;42.670;23.228;2024-02-16T03:45:06;6.22;;;3.28;;
8755;SDS011;4414;42.670;23.228;2024-02-16T03:47:32;7.20;;;3.53;;
8755;SDS011;4414;42.670;23.228;2024-02-16T03:49:57;7.70;;;3.65;;
8755;SDS011;4414;42.670;23.228;2024-02-16T03:52:22;8.63;;;2.97;;
8755;SDS011;4414;42.670;23.228;2024-02-16T03:54:48;7.15;;;2.88;;
8755;SDS011;4414;42.670;23.228;2024-02-16T03:57:15;7.55;;;3.15;;
8755;SDS011;4414;42.670;23.228;2024-02-16T03:59:44;6.35;;;2.33;;
8755;SDS011;4414;42.670;23.228;2024-02-16T04:02:10;6.05;;;2.88;;
8755;SDS011;4414;42.670;23.228;2024-02-16T04:04:38;6.85;;;2.83;;
8755;SDS011;4414;42.670;23.228;2024-02-16T04:07:04;3.95;;;2.80;;
8755;SDS011;4414;42.670;23.228;2024-02-16T04:09:31;6.60;;;4.25;;
8755;SDS011;4414;42.670;23.228;2024-02-16T04:11:57;4.40;;;2.80;;
8755;SDS011;4414;42.670;23.228;2024-02-16T04:14:23;5.30;;;2.92;;
8755;SDS011;4414;42.670;23.228;2024-02-16T04:16:48;9.05;;;2.38;;
8755;SDS011;4414;42.670;23.228;2024-02-16T04:19:14;4.75;;;1.95;;
8755;SDS011;4414;42.670;23.228;2024-02-16T04:21:39;6.03;;;2.28;;
8755;SDS011;4414;42.670;23.228;2024-02-16T04:24:05;2.40;;;1.85;;
8755;SDS011;4414;42.670;23.228;2024-02-16T04:26:30;3.70;;;2.42;;
8755;SDS011;4414;42.670;23.228;2024-02-16T04:28:56;5.30;;;3.22;;
8755;SDS011;4414;42.670;23.228;2024-02-16T04:31:21;7.45;;;4.10;;
8755;SDS011;4414;42.670;23.228;2024-02-16T04:33:47;7.32;;;3.47;;
8755;SDS011;4414;42.670;23.228;2024-02-16T04:36:12;6.72;;;3.70;;
8755;SDS011;4414;42.670;23.228;2024-02-16T04:38:38;4.65;;;3.38;;
8755;SDS011;4414;42.670;23.228;2024-02-16T04:41:06;6.90;;;2.75;;
8755;SDS011;4414;42.670;23.228;2024-02-16T04:43:32;3.97;;;2.97;;
8755;SDS011;4414;42.670;23.228;2024-02-16T04:45:58;2.95;;;2.00;;
8755;SDS011;4414;42.670;23.228;2024-02-16T04:48:24;6.45;;;3.08;;
8755;SDS011;4414;42.670;23.228;2024-02-16T04:50:50;5.32;;;3.00;;
8755;SDS011;4414;42.670;23.228;2024-02-16T04:53:16;3.72;;;2.67;;
8755;SDS011;4414;42.670;23.228;2024-02-16T04:55:41;4.85;;;3.22;;
8755;SDS011;4414;42.670;23.228;2024-02-16T04:58:07;4.50;;;2.97;;
8755;SDS011;4414;42.670;23.228;2024-02-16T05:00:37;7.05;;;2.72;;
8755;SDS011;4414;42.670;23.228;2024-02-16T05:03:03;4.10;;;2.25;;
8755;SDS011;4414;42.670;23.228;2024-02-16T05:05:29;3.60;;;2.55;;
8755;SDS011;4414;42.670;23.228;2024-02-16T05:07:55;4.93;;;3.42;;
8755;SDS011;4414;42.670;23.228;2024-02-16T05:10:22;5.88;;;2.97;;
8755;SDS011;4414;42.670;23.228;2024-02-16T05:12:47;5.15;;;3.20;;
8755;SDS011;4414;42.670;23.228;2024-02-16T05:15:13;3.10;;;2.05;;
8755;SDS011;4414;42.670;23.228;2024-02-16T05:17:39;4.55;;;2.40;;
8755;SDS011;4414;42.670;23.228;2024-02-16T05:20:14;2.72;;;1.83;;
8755;SDS011;4414;42.670;23.228;2024-02-16T05:22:44;5.22;;;3.70;;
8755;SDS011;4414;42.670;23.228;2024-02-16T05:25:11;6.30;;;3.40;;
8755;SDS011;4414;42.670;23.228;2024-02-16T05:27:37;7.32;;;2.65;;
8755;SDS011;4414;42.670;23.228;2024-02-16T05:30:06;3.70;;;2.70;;
8755;SDS011;4414;42.670;23.228;2024-02-16T05:32:35;4.85;;;2.65;;
8755;SDS011;4414;42.670;23.228;2024-02-16T05:35:04;3.90;;;2.38;;
8755;SDS011;4414;42.670;23.228;2024-02-16T05:37:42;5.15;;;2.80;;
8755;SDS011;4414;42.670;23.228;2024-02-16T05:40:09;5.32;;;2.45;;
8755;SDS011;4414;42.670;23.228;2024-02-16T05:42:46;5.38;;;2.28;;
8755;SDS011;4414;42.670;23.228;2024-02-16T05:45:13;6.47;;;2.97;;
8755;SDS011;4414;42.670;23.228;2024-02-16T05:47:39;7.28;;;3.50;;
8755;SDS011;4414;42.670;23.228;2024-02-16T05:50:06;6.18;;;3.55;;
8755;SDS011;4414;42.670;23.228;2024-02-16T05:52:32;4.78;;;2.90;;
8755;SDS011;4414;42.670;23.228;2024-02-16T05:54:57;6.18;;;3.45;;
8755;SDS011;4414;42.670;23.228;2024-02-16T05:57:23;6.05;;;2.45;;
8755;SDS011;4414;42.670;23.228;2024-02-16T05:59:49;5.22;;;2.88;;
8755;SDS011;4414;42.670;23.228;2024-02-16T06:02:16;6.43;;;3.13;;
8755;SDS011;4414;42.670;23.228;2024-02-16T06:04:41;7.50;;;3.38;;
8755;SDS011;4414;42.670;23.228;2024-02-16T06:07:07;5.60;;;3.57;;
8755;SDS011;4414;42.670;23.228;2024-02-16T06:09:33;5.03;;;2.65;;
8755;SDS011;4414;42.670;23.228;2024-02-16T06:12:00;11.52;;;4.57;;
8755;SDS011;4414;42.670;23.228;2024-02-16T06:14:28;18.05;;;8.23;;
8755;SDS011;4414;42.670;23.228;2024-02-16T06:16:54;17.52;;;7.03;;
8755;SDS011;4414;42.670;23.228;2024-02-16T06:19:20;11.90;;;5.28;;
8755;SDS011;4414;42.670;23.228;2024-02-16T06:21:45;12.52;;;5.32;;
8755;SDS011;4414;42.670;23.228;2024-02-16T06:24:11;11.20;;;5.10;;
8755;SDS011;4414;42.670;23.228;2024-02-16T06:26:36;9.32;;;5.05;;
8755;SDS011;4414;42.670;23.228;2024-02-16T06:29:02;6.60;;;3.92;;
8755;SDS011;4414;42.670;23.228;2024-02-16T06:31:27;5.88;;;2.67;;
8755;SDS011;4414;42.670;23.228;2024-02-16T06:33:52;7.95;;;3.35;;
8755;SDS011;4414;42.670;23.228;2024-02-16T06:36:18;4.57;;;2.73;;
8755;SDS011;4414;42.670;23.228;2024-02-16T06:38:43;3.63;;;2.30;;
8755;SDS011;4414;42.670;23.228;2024-02-16T06:41:08;9.13;;;2.47;;
8755;SDS011;4414;42.670;23.228;2024-02-16T06:43:35;5.28;;;2.63;;
8755;SDS011;4414;42.670;23.228;2024-02-16T06:46:00;5.18;;;2.83;;
8755;SDS011;4414;42.670;23.228;2024-02-16T06:48:26;5.68;;;2.50;;
8755;SDS011;4414;42.670;23.228;2024-02-16T06:50:51;5.15;;;2.30;;
8755;SDS011;4414;42.670;23.228;2024-02-16T06:53:17;3.05;;;1.90;;
8755;SDS011;4414;42.670;23.228;2024-02-16T06:55:42;4.30;;;2.00;;
8755;SDS011;4414;42.670;23.228;2024-02-16T06:58:07;3.35;;;2.28;;
8755;SDS011;4414;42.670;23.228;2024-02-16T07:00:33;4.18;;;2.63;;
8755;SDS011;4414;42.670;23.228;2024-02-16T07:03:00;3.20;;;2.17;;
8755;SDS011;4414;42.670;23.228;2024-02-16T07:05:26;4.75;;;2.80;;
8755;SDS011;4414;42.670;23.228;2024-02-16T07:07:53;5.07;;;2.95;;
8755;SDS011;4414;42.670;23.228;2024-02-16T07:10:19;4.13;;;1.92;;
8755;SDS011;4414;42.670;23.228;2024-02-16T07:12:44;3.45;;;2.17;;
8755;SDS011;4414;42.670;23.228;2024-02-16T07:15:10;4.88;;;2.08;;
8755;SDS011;4414;42.670;23.228;2024-02-16T07:17:37;4.97;;;2.08;;
8755;SDS011;4414;42.670;23.228;2024-02-16T07:20:03;4.38;;;2.33;;
8755;SDS011;4414;42.670;23.228;2024-02-16T07:22:29;3.55;;;1.70;;
8755;SDS011;4414;42.670;23.228;2024-02-16T07:24:55;3.08;;;2.05;;
8755;SDS011;4414;42.670;23.228;2024-02-16T07:27:20;2.85;;;2.33;;
8755;SDS011;4414;42.670;23.228;2024-02-16T07:29:46;4.30;;;2.53;;
8755;SDS011;4414;42.670;23.228;2024-02-16T07:32:12;4.03;;;2.25;;
8755;SDS011;4414;42.670;23.228;2024-02-16T07:34:37;4.30;;;2.20;;
8755;SDS011;4414;42.670;23.228;2024-02-16T07:37:03;4.75;;;3.58;;
8755;SDS011;4414;42.670;23.228;2024-02-16T07:39:29;5.65;;;3.33;;
8755;SDS011;4414;42.670;23.228;2024-02-16T07:41:55;4.63;;;2.72;;
8755;SDS011;4414;42.670;23.228;2024-02-16T07:44:20;4.55;;;2.85;;
8755;SDS011;4414;42.670;23.228;2024-02-16T07:46:46;5.13;;;2.80;;
8755;SDS011;4414;42.670;23.228;2024-02-16T07:49:12;6.90;;;3.03;;
8755;SDS011;4414;42.670;23.228;2024-02-16T07:51:39;4.43;;;2.50;;
8755;SDS011;4414;42.670;23.228;2024-02-16T07:54:05;4.65;;;3.30;;
8755;SDS011;4414;42.670;23.228;2024-02-16T07:56:31;6.18;;;3.38;;
8755;SDS011;4414;42.670;23.228;2024-02-16T07:58:56;5.00;;;2.63;;
8755;SDS011;4414;42.670;23.228;2024-02-16T08:01:22;6.55;;;3.15;;
8755;SDS011;4414;42.670;23.228;2024-02-16T08:03:47;5.20;;;3.60;;
8755;SDS011;4414;42.670;23.228;2024-02-16T08:06:13;6.53;;;3.30;;
8755;SDS011;4414;42.670;23.228;2024-02-16T08:08:39;9.40;;;4.07;;
8755;SDS011;4414;42.670;23.228;2024-02-16T08:11:04;5.93;;;3.10;;
8755;SDS011;4414;42.670;23.228;2024-02-16T08:13:30;6.72;;;4.07;;
8755;SDS011;4414;42.670;23.228;2024-02-16T08:15:55;7.07;;;4.03;;
8755;SDS011;4414;42.670;23.228;2024-02-16T08:18:21;8.43;;;5.10;;
8755;SDS011;4414;42.670;23.228;2024-02-16T08:20:47;7.07;;;3.83;;
8755;SDS011;4414;42.670;23.228;2024-02-16T08:23:12;7.18;;;4.13;;
8755;SDS011;4414;42.670;23.228;2024-02-16T08:25:38;7.60;;;4.25;;
8755;SDS011;4414;42.670;23.228;2024-02-16T08:28:03;8.30;;;4.50;;
8755;SDS011;4414;42.670;23.228;2024-02-16T08:30:30;9.30;;;5.53;;
8755;SDS011;4414;42.670;23.228;2024-02-16T08:32:55;10.30;;;4.20;;
8755;SDS011;4414;42.670;23.228;2024-02-16T08:35:21;8.20;;;3.72;;
8755;SDS011;4414;42.670;23.228;2024-02-16T08:37:46;8.20;;;4.78;;
8755;SDS011;4414;42.670;23.228;2024-02-16T08:40:12;8.35;;;4.68;;
8755;SDS011;4414;42.670;23.228;2024-02-16T08:42:41;13.05;;;6.22;;
8755;SDS011;4414;42.670;23.228;2024-02-16T08:45:09;9.77;;;5.18;;
8755;SDS011;4414;42.670;23.228;2024-02-16T08:47:37;8.18;;;4.40;;
8755;SDS011;4414;42.670;23.228;2024-02-16T08:50:04;6.63;;;4.55;;
8755;SDS011;4414;42.670;23.228;2024-02-16T08:52:29;6.65;;;4.25;;
8755;SDS011;4414;42.670;23.228;2024-02-16T08:54:56;5.22;;;3.67;;
8755;SDS011;4414;42.670;23.228;2024-02-16T08:57:22;10.05;;;5.47;;
8755;SDS011;4414;42.670;23.228;2024-02-16T08:59:47;12.13;;;5.55;;
8755;SDS011;4414;42.670;23.228;2024-02-16T09:02:12;11.63;;;6.35;;
8755;SDS011;4414;42.670;23.228;2024-02-16T09:04:38;9.85;;;5.22;;
8755;SDS011;4414;42.670;23.228;2024-02-16T09:07:03;9.23;;;5.80;;
8755;SDS011;4414;42.670;23.228;2024-02-16T09:09:29;8.45;;;4.53;;
8755;SDS011;4414;42.670;23.228;2024-02-16T09:11:54;5.50;;;2.72;;
8755;SDS011;4414;42.670;23.228;2024-02-16T09:14:19;7.18;;;4.45;;
8755;SDS011;4414;42.670;23.228;2024-02-16T09:16:48;5.85;;;3.10;;
8755;SDS011;4414;42.670;23.228;2024-02-16T09:19:16;4.70;;;2.25;;
8755;SDS011;4414;42.670;23.228;2024-02-16T09:21:42;8.38;;;4.82;;
8755;SDS011;4414;42.670;23.228;2024-02-16T09:24:07;5.45;;;3.55;;
8755;SDS011;4414;42.670;23.228;2024-02-16T09:26:35;6.72;;;3.00;;
8755;SDS011;4414;42.670;23.228;2024-02-16T09:29:01;5.80;;;3.70;;
8755;SDS011;4414;42.670;23.228;2024-02-16T09:31:27;7.78;;;3.88;;
8755;SDS011;4414;42.670;23.228;2024-02-16T09:33:52;6.90;;;3.88;;
8755;SDS011;4414;42.670;23.228;2024-02-16T09:36:18;9.00;;;3.97;;
8755;SDS011;4414;42.670;23.228;2024-02-16T09:38:44;6.75;;;4.53;;
8755;SDS011;4414;42.670;23.228;2024-02-16T09:41:09;8.82;;;4.35;;
8755;SDS011;4414;42.670;23.228;2024-02-16T09:43:35;9.43;;;4.65;;
8755;SDS011;4414;42.670;23.228;2024-02-16T09:46:04;7.50;;;4.13;;
8755;SDS011;4414;42.670;23.228;2024-02-16T09:48:30;6.55;;;3.80;;
8755;SDS011;4414;42.670;23.228;2024-02-16T09:50:56;5.47;;;3.00;;
8755;SDS011;4414;42.670;23.228;2024-02-16T09:53:26;5.00;;;2.33;;
8755;SDS011;4414;42.670;23.228;2024-02-16T09:55:52;6.72;;;3.58;;
8755;SDS011;4414;42.670;23.228;2024-02-16T09:58:19;8.23;;;4.20;;
8755;SDS011;4414;42.670;23.228;2024-02-16T10:00:48;5.10;;;3.10;;
8755;SDS011;4414;42.670;23.228;2024-02-16T10:03:24;12.57;;;3.92;;
8755;SDS011;4414;42.670;23.228;2024-02-16T10:05:51;5.40;;;3.65;;
8755;SDS011;4414;42.670;23.228;2024-02-16T10:08:19;9.00;;;4.85;;
8755;SDS011;4414;42.670;23.228;2024-02-16T10:10:45;6.28;;;3.45;;
8755;SDS011;4414;42.670;23.228;2024-02-16T10:13:10;6.43;;;4.07;;
8755;SDS011;4414;42.670;23.228;2024-02-16T10:15:36;5.43;;;3.33;;
8755;SDS011;4414;42.670;23.228;2024-02-16T10:18:02;7.18;;;3.28;;
8755;SDS011;4414;42.670;23.228;2024-02-16T10:20:29;3.53;;;2.20;;
8755;SDS011;4414;42.670;23.228;2024-02-16T10:23:08;5.82;;;3.58;;
8755;SDS011;4414;42.670;23.228;2024-02-16T10:25:35;6.07;;;3.03;;
8755;SDS011;4414;42.670;23.228;2024-02-16T10:28:03;8.32;;;4.15;;
8755;SDS011;4414;42.670;23.228;2024-02-16T10:30:31;7.30;;;3.83;;
8755;SDS011;4414;42.670;23.228;2024-02-16T10:33:00;5.50;;;3.20;;
8755;SDS011;4414;42.670;23.228;2024-02-16T10:35:27;5.85;;;3.70;;
8755;SDS011;4414;42.670;23.228;2024-02-16T10:37:54;3.88;;;2.78;;
8755;SDS011;4414;42.670;23.228;2024-02-16T10:40:22;5.78;;;3.50;;
8755;SDS011;4414;42.670;23.228;2024-02-16T10:42:49;7.80;;;3.53;;
8755;SDS011;4414;42.670;23.228;2024-02-16T10:45:16;4.40;;;3.35;;
8755;SDS011;4414;42.670;23.228;2024-02-16T10:47:42;5.30;;;3.35;;
8755;SDS011;4414;42.670;23.228;2024-02-16T10:50:07;6.88;;;2.90;;
8755;SDS011;4414;42.670;23.228;2024-02-16T10:52:34;4.63;;;3.38;;
8755;SDS011;4414;42.670;23.228;2024-02-16T10:55:04;7.50;;;4.03;;
8755;SDS011;4414;42.670;23.228;2024-02-16T10:57:30;8.80;;;4.05;;
8755;SDS011;4414;42.670;23.228;2024-02-16T10:59:58;6.40;;;4.03;;
8755;SDS011;4414;42.670;23.228;2024-02-16T11:02:24;9.88;;;4.65;;
8755;SDS011;4414;42.670;23.228;2024-02-16T11:04:51;10.60;;;4.90;;
8755;SDS011;4414;42.670;23.228;2024-02-16T11:07:18;7.68;;;3.70;;
8755;SDS011;4414;42.670;23.228;2024-02-16T11:09:45;7.43;;;4.20;;
8755;SDS011;4414;42.670;23.228;2024-02-16T11:12:12;7.78;;;3.65;;
8755;SDS011;4414;42.670;23.228;2024-02-16T11:19:37;6.63;;;3.38;;
8755;SDS011;4414;42.670;23.228;2024-02-16T11:22:05;6.60;;;3.75;;
8755;SDS011;4414;42.670;23.228;2024-02-16T11:24:33;8.38;;;4.18;;
8755;SDS011;4414;42.670;23.228;2024-02-16T11:27:04;8.23;;;4.72;;
8755;SDS011;4414;42.670;23.228;2024-02-16T11:29:36;6.82;;;4.13;;
8755;SDS011;4414;42.670;23.228;2024-02-16T11:32:03;7.50;;;4.40;;
8755;SDS011;4414;42.670;23.228;2024-02-16T11:34:30;6.22;;;4.07;;
8755;SDS011;4414;42.670;23.228;2024-02-16T11:36:57;7.72;;;3.97;;
8755;SDS011;4414;42.670;23.228;2024-02-16T11:39:23;9.77;;;4.47;;
8755;SDS011;4414;42.670;23.228;2024-02-16T11:44:52;10.63;;;5.47;;
8755;SDS011;4414;42.670;23.228;2024-02-16T11:47:22;8.65;;;5.32;;
8755;SDS011;4414;42.670;23.228;2024-02-16T11:50:02;9.05;;;4.70;;
8755;SDS011;4414;42.670;23.228;2024-02-16T11:52:36;7.07;;;4.10;;
8755;SDS011;4414;42.670;23.228;2024-02-16T11:55:03;7.53;;;4.32;;
8755;SDS011;4414;42.670;23.228;2024-02-16T11:57:29;7.25;;;4.78;;
8755;SDS011;4414;42.670;23.228;2024-02-16T11:59:55;9.65;;;4.80;;
8755;SDS011;4414;42.670;23.228;2024-02-16T12:02:23;6.35;;;3.63;;
8755;SDS011;4414;42.670;23.228;2024-02-16T12:04:57;6.90;;;5.50;;
8755;SDS011;4414;42.670;23.228;2024-02-16T12:07:25;6.97;;;4.63;;
8755;SDS011;4414;42.670;23.228;2024-02-16T12:09:56;5.07;;;3.72;;
8755;SDS011;4414;42.670;23.228;2024-02-16T12:12:22;7.53;;;4.32;;
8755;SDS011;4414;42.670;23.228;2024-02-16T12:14:48;7.25;;;4.15;;
8755;SDS011;4414;42.670;23.228;2024-02-16T12:17:14;9.40;;;5.07;;
8755;SDS011;4414;42.670;23.228;2024-02-16T12:19:43;8.68;;;5.03;;
8755;SDS011;4414;42.670;23.228;2024-02-16T12:22:10;8.10;;;4.00;;
8755;SDS011;4414;42.670;23.228;2024-02-16T12:24:35;8.95;;;4.68;;
8755;SDS011;4414;42.670;23.228;2024-02-16T12:27:01;8.95;;;4.90;;
8755;SDS011;4414;42.670;23.228;2024-02-16T12:29:26;7.38;;;4.20;;
8755;SDS011;4414;42.670;23.228;2024-02-16T12:31:51;15.43;;;5.43;;
8755;SDS011;4414;42.670;23.228;2024-02-16T12:34:17;7.88;;;4.30;;
8755;SDS011;4414;42.670;23.228;2024-02-16T12:36:42;7.03;;;3.78;;
8755;SDS011;4414;42.670;23.228;2024-02-16T12:39:08;8.70;;;3.67;;
8755;SDS011;4414;42.670;23.228;2024-02-16T12:41:38;6.18;;;3.95;;
8755;SDS011;4414;42.670;23.228;2024-02-16T12:44:04;4.65;;;3.25;;
8755;SDS011;4414;42.670;23.228;2024-02-16T12:46:31;9.32;;;5.43;;
8755;SDS011;4414;42.670;23.228;2024-02-16T12:48:57;9.55;;;5.60;;
8755;SDS011;4414;42.670;23.228;2024-02-16T12:51:22;8.82;;;4.88;;
8755;SDS011;4414;42.670;23.228;2024-02-16T12:53:48;8.18;;;3.67;;
8755;SDS011;4414;42.670;23.228;2024-02-16T12:56:13;6.82;;;4.22;;
8755;SDS011;4414;42.670;23.228;2024-02-16T12:58:39;7.15;;;3.50;;
8755;SDS011;4414;42.670;23.228;2024-02-16T13:01:05;9.20;;;4.47;;
8755;SDS011;4414;42.670;23.228;2024-02-16T13:03:40;7.47;;;4.22;;
8755;SDS011;4414;42.670;23.228;2024-02-16T13:06:05;6.43;;;4.05;;
8755;SDS011;4414;42.670;23.228;2024-02-16T13:08:31;8.60;;;4.90;;
8755;SDS011;4414;42.670;23.228;2024-02-16T13:10:57;7.93;;;4.45;;
8755;SDS011;4414;42.670;23.228;2024-02-16T13:13:23;6.03;;;3.85;;
8755;SDS011;4414;42.670;23.228;2024-02-16T13:15:49;8.15;;;3.92;;
8755;SDS011;4414;42.670;23.228;2024-02-16T13:18:14;5.72;;;3.42;;
8755;SDS011;4414;42.670;23.228;2024-02-16T13:20:40;6.85;;;3.78;;
8755;SDS011;4414;42.670;23.228;2024-02-16T13:23:06;7.60;;;3.92;;
8755;SDS011;4414;42.670;23.228;2024-02-16T13:25:32;7.80;;;4.07;;
8755;SDS011;4414;42.670;23.228;2024-02-16T13:27:57;9.07;;;4.57;;
8755;SDS011;4414;42.670;23.228;2024-02-16T13:30:24;6.32;;;3.65;;
8755;SDS011;4414;42.670;23.228;2024-02-16T13:32:50;11.00;;;4.22;;
8755;SDS011;4414;42.670;23.228;2024-02-16T13:35:15;10.63;;;3.85;;
8755;SDS011;4414;42.670;23.228;2024-02-16T13:37:41;6.90;;;4.35;;
8755;SDS011;4414;42.670;23.228;2024-02-16T13:40:06;6.13;;;3.50;;
8755;SDS011;4414;42.670;23.228;2024-02-16T13:42:36;5.85;;;3.05;;
8755;SDS011;4414;42.670;23.228;2024-02-16T13:45:06;7.50;;;3.42;;
8755;SDS011;4414;42.670;23.228;2024-02-16T13:47:32;6.32;;;3.83;;
8755;SDS011;4414;42.670;23.228;2024-02-16T13:49:57;8.35;;;5.78;;
8755;SDS011;4414;42.670;23.228;2024-02-16T13:52:24;7.68;;;4.05;;
8755;SDS011;4414;42.670;23.228;2024-02-16T13:54:50;5.72;;;3.33;;
8755;SDS011;4414;42.670;23.228;2024-02-16T13:57:15;8.15;;;3.40;;
8755;SDS011;4414;42.670;23.228;2024-02-16T13:59:41;5.85;;;3.30;;
8755;SDS011;4414;42.670;23.228;2024-02-16T14:02:07;6.95;;;3.35;;
8755;SDS011;4414;42.670;23.228;2024-02-16T14:04:33;8.05;;;3.63;;
8755;SDS011;4414;42.670;23.228;2024-02-16T14:06:59;6.10;;;3.03;;
8755;SDS011;4414;42.670;23.228;2024-02-16T14:09:24;8.45;;;3.10;;
8755;SDS011;4414;42.670;23.228;2024-02-16T14:11:51;9.80;;;3.60;;
8755;SDS011;4414;42.670;23.228;2024-02-16T14:14:18;7.65;;;3.75;;
8755;SDS011;4414;42.670;23.228;2024-02-16T14:16:44;6.75;;;4.10;;
8755;SDS011;4414;42.670;23.228;2024-02-16T14:19:09;7.95;;;4.00;;
8755;SDS011;4414;42.670;23.228;2024-02-16T14:21:35;7.45;;;3.60;;
8755;SDS011;4414;42.670;23.228;2024-02-16T14:24:00;6.20;;;3.83;;
8755;SDS011;4414;42.670;23.228;2024-02-16T14:26:26;6.75;;;3.42;;
8755;SDS011;4414;42.670;23.228;2024-02-16T14:28:51;5.40;;;3.65;;
8755;SDS011;4414;42.670;23.228;2024-02-16T14:31:20;7.30;;;3.30;;
8755;SDS011;4414;42.670;23.228;2024-02-16T14:33:46;8.25;;;3.72;;
8755;SDS011;4414;42.670;23.228;2024-02-16T14:36:12;4.65;;;2.95;;
8755;SDS011;4414;42.670;23.228;2024-02-16T14:38:38;4.93;;;3.25;;
8755;SDS011;4414;42.670;23.228;2024-02-16T14:41:03;7.20;;;3.28;;
8755;SDS011;4414;42.670;23.228;2024-02-16T14:43:30;4.55;;;3.20;;
8755;SDS011;4414;42.670;23.228;2024-02-16T14:45:59;6.15;;;3.33;;
8755;SDS011;4414;42.670;23.228;2024-02-16T14:48:25;7.22;;;3.33;;
8755;SDS011;4414;42.670;23.228;2024-02-16T14:50:51;4.88;;;3.17;;
8755;SDS011;4414;42.670;23.228;2024-02-16T14:53:18;12.48;;;3.53;;
8755;SDS011;4414;42.670;23.228;2024-02-16T14:55:45;5.80;;;3.50;;
8755;SDS011;4414;42.670;23.228;2024-02-16T14:58:11;8.57;;;3.92;;
8755;SDS011;4414;42.670;23.228;2024-02-16T15:00:37;4.22;;;2.85;;
8755;SDS011;4414;42.670;23.228;2024-02-16T15:03:03;9.13;;;3.80;;